sensor_id;sensor_type;location;lat;lon;timestamp;temperature;humidity
20182;DHT22;10250;50.756;6.172;2023-07-31T00:00:30;15.90;99.90
20182;DHT22;10250;50.756;6.172;2023-07-31T00:02:31;15.90;99.90
20182;DHT22;10250;50.756;6.172;2023-07-31T00:04:31;15.90;99.90
20182;DHT22;10250;50.756;6.172;2023-07-31T00:06:32;15.90;99.90
20182;DHT22;10250;50.756;6.172;2023-07-31T00:08:32;15.80;99.90
20182;DHT22;10250;50.756;6.172;2023-07-31T00:10:33;15.90;99.90
20182;DHT22;10250;50.756;6.172;2023-07-31T00:12:34;15.90;99.90
20182;DHT22;10250;50.756;6.172;2023-07-31T00:14:34;15.90;99.90
20182;DHT22;10250;50.756;6.172;2023-07-31T00:16:35;15.90;99.90
20182;DHT22;10250;50.756;6.172;2023-07-31T00:18:35;15.90;99.90
20182;DHT22;10250;50.756;6.172;2023-07-31T00:20:36;15.90;99.90
20182;DHT22;10250;50.756;6.172;2023-07-31T00:22:37;15.90;99.90
20182;DHT22;10250;50.756;6.172;2023-07-31T00:24:37;15.90;99.90
20182;DHT22;10250;50.756;6.172;2023-07-31T00:26:38;15.90;99.90
20182;DHT22;10250;50.756;6.172;2023-07-31T00:28:38;15.90;99.90
20182;DHT22;10250;50.756;6.172;2023-07-31T00:30:39;16.00;99.90
20182;DHT22;10250;50.756;6.172;2023-07-31T00:32:40;16.00;99.90
20182;DHT22;10250;50.756;6.172;2023-07-31T00:34:41;16.00;99.90
20182;DHT22;10250;50.756;6.172;2023-07-31T00:36:41;16.00;99.90
20182;DHT22;10250;50.756;6.172;2023-07-31T00:38:42;15.90;99.90
20182;DHT22;10250;50.756;6.172;2023-07-31T00:40:42;16.00;99.90
20182;DHT22;10250;50.756;6.172;2023-07-31T00:42:43;16.00;99.90
20182;DHT22;10250;50.756;6.172;2023-07-31T00:44:43;16.00;99.90
20182;DHT22;10250;50.756;6.172;2023-07-31T00:46:44;16.00;99.90
20182;DHT22;10250;50.756;6.172;2023-07-31T00:48:45;16.00;99.90
20182;DHT22;10250;50.756;6.172;2023-07-31T00:50:46;16.00;99.90
20182;DHT22;10250;50.756;6.172;2023-07-31T00:52:46;16.00;99.90
20182;DHT22;10250;50.756;6.172;2023-07-31T00:54:48;16.00;99.90
20182;DHT22;10250;50.756;6.172;2023-07-31T00:56:50;16.00;99.90
20182;DHT22;10250;50.756;6.172;2023-07-31T00:58:53;16.00;99.90
20182;DHT22;10250;50.756;6.172;2023-07-31T01:00:54;16.00;99.90
20182;DHT22;10250;50.756;6.172;2023-07-31T01:02:54;16.00;99.90
20182;DHT22;10250;50.756;6.172;2023-07-31T01:04:55;16.00;99.90
20182;DHT22;10250;50.756;6.172;2023-07-31T01:07:05;15.90;99.90
20182;DHT22;10250;50.756;6.172;2023-07-31T01:11:35;16.00;99.90
20182;DHT22;10250;50.756;6.172;2023-07-31T01:13:39;16.00;99.90
20182;DHT22;10250;50.756;6.172;2023-07-31T01:15:39;16.00;99.90
20182;DHT22;10250;50.756;6.172;2023-07-31T01:17:41;15.90;99.90
20182;DHT22;10250;50.756;6.172;2023-07-31T01:19:42;15.90;99.90
20182;DHT22;10250;50.756;6.172;2023-07-31T01:26:31;16.00;99.90
20182;DHT22;10250;50.756;6.172;2023-07-31T01:28:56;16.00;99.90
20182;DHT22;10250;50.756;6.172;2023-07-31T01:31:00;16.00;99.90
20182;DHT22;10250;50.756;6.172;2023-07-31T01:33:03;16.00;99.90
20182;DHT22;10250;50.756;6.172;2023-07-31T01:35:08;16.00;99.90
20182;DHT22;10250;50.756;6.172;2023-07-31T01:37:09;16.00;99.90
20182;DHT22;10250;50.756;6.172;2023-07-31T01:39:09;16.10;99.90
20182;DHT22;10250;50.756;6.172;2023-07-31T01:41:10;16.00;99.90
20182;DHT22;10250;50.756;6.172;2023-07-31T01:43:10;16.00;99.90
20182;DHT22;10250;50.756;6.172;2023-07-31T01:45:11;16.00;99.90
20182;DHT22;10250;50.756;6.172;2023-07-31T01:47:12;16.00;99.90
20182;DHT22;10250;50.756;6.172;2023-07-31T01:49:13;16.00;99.90
20182;DHT22;10250;50.756;6.172;2023-07-31T01:51:13;16.00;99.90
20182;DHT22;10250;50.756;6.172;2023-07-31T01:53:14;16.10;99.90
20182;DHT22;10250;50.756;6.172;2023-07-31T01:55:15;16.00;99.90
20182;DHT22;10250;50.756;6.172;2023-07-31T01:57:15;16.10;99.90
20182;DHT22;10250;50.756;6.172;2023-07-31T01:59:16;16.10;99.90
20182;DHT22;10250;50.756;6.172;2023-07-31T02:01:16;16.10;99.90
20182;DHT22;10250;50.756;6.172;2023-07-31T02:03:17;16.10;99.90
20182;DHT22;10250;50.756;6.172;2023-07-31T02:05:17;16.10;99.90
20182;DHT22;10250;50.756;6.172;2023-07-31T02:07:18;16.10;99.90
20182;DHT22;10250;50.756;6.172;2023-07-31T02:09:18;16.10;99.90
20182;DHT22;10250;50.756;6.172;2023-07-31T02:11:19;16.10;99.90
20182;DHT22;10250;50.756;6.172;2023-07-31T02:13:19;16.00;99.90
20182;DHT22;10250;50.756;6.172;2023-07-31T02:15:20;16.10;99.90
20182;DHT22;10250;50.756;6.172;2023-07-31T02:17:21;16.10;99.90
20182;DHT22;10250;50.756;6.172;2023-07-31T02:19:22;16.10;99.90
20182;DHT22;10250;50.756;6.172;2023-07-31T02:21:22;16.10;99.90
20182;DHT22;10250;50.756;6.172;2023-07-31T02:23:23;16.10;99.90
20182;DHT22;10250;50.756;6.172;2023-07-31T02:25:23;16.10;99.90
20182;DHT22;10250;50.756;6.172;2023-07-31T02:27:24;16.10;99.90
20182;DHT22;10250;50.756;6.172;2023-07-31T02:29:27;16.10;99.90
20182;DHT22;10250;50.756;6.172;2023-07-31T02:31:28;16.10;99.90
20182;DHT22;10250;50.756;6.172;2023-07-31T02:33:28;16.10;99.90
20182;DHT22;10250;50.756;6.172;2023-07-31T02:35:29;16.20;99.90
20182;DHT22;10250;50.756;6.172;2023-07-31T02:37:29;16.10;99.90
20182;DHT22;10250;50.756;6.172;2023-07-31T02:39:30;16.20;99.90
20182;DHT22;10250;50.756;6.172;2023-07-31T02:41:30;16.10;99.90
20182;DHT22;10250;50.756;6.172;2023-07-31T02:43:31;16.10;99.90
20182;DHT22;10250;50.756;6.172;2023-07-31T02:45:31;16.10;99.90
20182;DHT22;10250;50.756;6.172;2023-07-31T02:47:32;16.20;99.90
20182;DHT22;10250;50.756;6.172;2023-07-31T02:49:33;16.20;99.90
20182;DHT22;10250;50.756;6.172;2023-07-31T02:51:33;16.20;99.90
20182;DHT22;10250;50.756;6.172;2023-07-31T02:53:34;16.20;99.90
20182;DHT22;10250;50.756;6.172;2023-07-31T02:55:34;16.20;99.90
20182;DHT22;10250;50.756;6.172;2023-07-31T02:57:35;16.20;99.90
20182;DHT22;10250;50.756;6.172;2023-07-31T02:59:35;16.20;99.90
20182;DHT22;10250;50.756;6.172;2023-07-31T03:01:36;16.30;99.90
20182;DHT22;10250;50.756;6.172;2023-07-31T03:03:36;16.20;99.90
20182;DHT22;10250;50.756;6.172;2023-07-31T03:05:37;16.20;99.90
20182;DHT22;10250;50.756;6.172;2023-07-31T03:07:38;16.20;99.90
20182;DHT22;10250;50.756;6.172;2023-07-31T03:09:38;16.20;99.90
20182;DHT22;10250;50.756;6.172;2023-07-31T03:11:39;16.20;99.90
20182;DHT22;10250;50.756;6.172;2023-07-31T03:13:39;16.20;99.90
20182;DHT22;10250;50.756;6.172;2023-07-31T03:15:42;16.20;99.90
20182;DHT22;10250;50.756;6.172;2023-07-31T03:17:43;16.20;99.90
20182;DHT22;10250;50.756;6.172;2023-07-31T03:19:44;16.20;99.90
20182;DHT22;10250;50.756;6.172;2023-07-31T03:21:45;16.20;99.90
20182;DHT22;10250;50.756;6.172;2023-07-31T03:23:45;16.20;99.90
20182;DHT22;10250;50.756;6.172;2023-07-31T03:25:59;16.20;99.90
20182;DHT22;10250;50.756;6.172;2023-07-31T03:28:00;16.20;99.90
20182;DHT22;10250;50.756;6.172;2023-07-31T03:30:02;16.20;99.90
20182;DHT22;10250;50.756;6.172;2023-07-31T03:32:03;16.20;99.90
20182;DHT22;10250;50.756;6.172;2023-07-31T03:34:04;16.20;99.90
20182;DHT22;10250;50.756;6.172;2023-07-31T03:36:05;16.20;99.90
20182;DHT22;10250;50.756;6.172;2023-07-31T03:38:06;16.20;99.90
20182;DHT22;10250;50.756;6.172;2023-07-31T03:40:07;16.20;99.90
20182;DHT22;10250;50.756;6.172;2023-07-31T03:42:07;16.20;99.90
20182;DHT22;10250;50.756;6.172;2023-07-31T03:44:08;16.30;99.90
20182;DHT22;10250;50.756;6.172;2023-07-31T03:46:09;16.30;99.90
20182;DHT22;10250;50.756;6.172;2023-07-31T03:48:09;16.30;99.90
20182;DHT22;10250;50.756;6.172;2023-07-31T03:50:10;16.30;99.90
20182;DHT22;10250;50.756;6.172;2023-07-31T03:52:10;16.30;99.90
20182;DHT22;10250;50.756;6.172;2023-07-31T03:54:11;16.30;99.90
20182;DHT22;10250;50.756;6.172;2023-07-31T03:56:13;16.40;99.90
20182;DHT22;10250;50.756;6.172;2023-07-31T03:58:14;16.30;99.90
20182;DHT22;10250;50.756;6.172;2023-07-31T04:00:14;16.30;99.90
20182;DHT22;10250;50.756;6.172;2023-07-31T04:02:15;16.30;99.90
20182;DHT22;10250;50.756;6.172;2023-07-31T04:04:16;16.30;99.90
20182;DHT22;10250;50.756;6.172;2023-07-31T04:06:17;16.30;99.90
20182;DHT22;10250;50.756;6.172;2023-07-31T04:08:18;16.30;99.90
20182;DHT22;10250;50.756;6.172;2023-07-31T04:10:18;16.30;99.90
20182;DHT22;10250;50.756;6.172;2023-07-31T04:12:19;16.30;99.90
20182;DHT22;10250;50.756;6.172;2023-07-31T04:14:20;16.20;99.90
20182;DHT22;10250;50.756;6.172;2023-07-31T04:16:20;16.30;99.90
20182;DHT22;10250;50.756;6.172;2023-07-31T04:18:21;16.30;99.90
20182;DHT22;10250;50.756;6.172;2023-07-31T04:20:22;16.30;99.90
20182;DHT22;10250;50.756;6.172;2023-07-31T04:22:22;16.20;99.90
20182;DHT22;10250;50.756;6.172;2023-07-31T04:24:23;16.30;99.90
20182;DHT22;10250;50.756;6.172;2023-07-31T04:26:26;16.30;99.90
20182;DHT22;10250;50.756;6.172;2023-07-31T04:28:27;16.30;99.90
20182;DHT22;10250;50.756;6.172;2023-07-31T04:30:27;16.30;99.90
20182;DHT22;10250;50.756;6.172;2023-07-31T04:32:28;16.30;99.90
20182;DHT22;10250;50.756;6.172;2023-07-31T04:34:30;16.30;99.90
20182;DHT22;10250;50.756;6.172;2023-07-31T04:36:30;16.20;99.90
20182;DHT22;10250;50.756;6.172;2023-07-31T04:38:31;16.30;99.90
20182;DHT22;10250;50.756;6.172;2023-07-31T04:40:31;16.30;99.90
20182;DHT22;10250;50.756;6.172;2023-07-31T04:42:32;16.30;99.90
20182;DHT22;10250;50.756;6.172;2023-07-31T04:44:32;16.30;99.90
20182;DHT22;10250;50.756;6.172;2023-07-31T04:46:33;16.30;99.90
20182;DHT22;10250;50.756;6.172;2023-07-31T04:48:33;16.30;99.90
20182;DHT22;10250;50.756;6.172;2023-07-31T04:50:34;16.30;99.90
20182;DHT22;10250;50.756;6.172;2023-07-31T04:52:35;16.40;99.90
20182;DHT22;10250;50.756;6.172;2023-07-31T04:54:35;16.40;99.90
20182;DHT22;10250;50.756;6.172;2023-07-31T04:56:36;16.40;99.90
20182;DHT22;10250;50.756;6.172;2023-07-31T04:58:36;16.40;99.90
20182;DHT22;10250;50.756;6.172;2023-07-31T05:00:37;16.40;99.90
20182;DHT22;10250;50.756;6.172;2023-07-31T05:02:37;16.40;99.90
20182;DHT22;10250;50.756;6.172;2023-07-31T05:04:38;16.40;99.90
20182;DHT22;10250;50.756;6.172;2023-07-31T05:06:38;16.40;99.90
20182;DHT22;10250;50.756;6.172;2023-07-31T05:08:39;16.40;99.90
20182;DHT22;10250;50.756;6.172;2023-07-31T05:10:40;16.40;99.90
20182;DHT22;10250;50.756;6.172;2023-07-31T05:12:40;16.40;99.90
20182;DHT22;10250;50.756;6.172;2023-07-31T05:14:41;16.40;99.90
20182;DHT22;10250;50.756;6.172;2023-07-31T05:16:41;16.40;99.90
20182;DHT22;10250;50.756;6.172;2023-07-31T05:18:42;16.40;99.90
20182;DHT22;10250;50.756;6.172;2023-07-31T05:20:42;16.40;99.90
20182;DHT22;10250;50.756;6.172;2023-07-31T05:22:43;16.40;99.90
20182;DHT22;10250;50.756;6.172;2023-07-31T05:24:43;16.50;99.90
20182;DHT22;10250;50.756;6.172;2023-07-31T05:26:44;16.40;99.90
20182;DHT22;10250;50.756;6.172;2023-07-31T05:28:44;16.40;99.90
20182;DHT22;10250;50.756;6.172;2023-07-31T05:30:45;16.40;99.90
20182;DHT22;10250;50.756;6.172;2023-07-31T05:32:46;16.40;99.90
20182;DHT22;10250;50.756;6.172;2023-07-31T05:34:46;16.40;99.90
20182;DHT22;10250;50.756;6.172;2023-07-31T05:36:47;16.40;99.90
20182;DHT22;10250;50.756;6.172;2023-07-31T05:38:47;16.30;99.90
20182;DHT22;10250;50.756;6.172;2023-07-31T05:40:48;16.20;99.90
20182;DHT22;10250;50.756;6.172;2023-07-31T05:42:48;16.20;99.90
20182;DHT22;10250;50.756;6.172;2023-07-31T05:44:49;16.20;99.90
20182;DHT22;10250;50.756;6.172;2023-07-31T05:46:50;16.20;99.90
20182;DHT22;10250;50.756;6.172;2023-07-31T05:48:50;16.10;99.90
20182;DHT22;10250;50.756;6.172;2023-07-31T05:50:51;16.20;99.90
20182;DHT22;10250;50.756;6.172;2023-07-31T05:52:51;16.20;99.90
20182;DHT22;10250;50.756;6.172;2023-07-31T05:54:52;16.20;99.90
20182;DHT22;10250;50.756;6.172;2023-07-31T05:56:52;16.10;99.90
20182;DHT22;10250;50.756;6.172;2023-07-31T05:58:53;16.10;99.90
20182;DHT22;10250;50.756;6.172;2023-07-31T06:00:54;16.20;99.90
20182;DHT22;10250;50.756;6.172;2023-07-31T06:02:54;16.20;99.90
20182;DHT22;10250;50.756;6.172;2023-07-31T06:04:55;16.20;99.90
20182;DHT22;10250;50.756;6.172;2023-07-31T06:06:56;16.30;99.90
20182;DHT22;10250;50.756;6.172;2023-07-31T06:08:56;16.30;99.90
20182;DHT22;10250;50.756;6.172;2023-07-31T06:10:57;16.40;99.90
20182;DHT22;10250;50.756;6.172;2023-07-31T06:12:58;16.40;99.90
20182;DHT22;10250;50.756;6.172;2023-07-31T06:14:59;16.40;99.90
20182;DHT22;10250;50.756;6.172;2023-07-31T06:17:00;16.50;99.90
20182;DHT22;10250;50.756;6.172;2023-07-31T06:19:00;16.60;99.90
20182;DHT22;10250;50.756;6.172;2023-07-31T06:21:01;16.70;99.90
20182;DHT22;10250;50.756;6.172;2023-07-31T06:23:02;16.60;99.90
20182;DHT22;10250;50.756;6.172;2023-07-31T06:25:04;16.70;99.90
20182;DHT22;10250;50.756;6.172;2023-07-31T06:27:05;17.00;99.90
20182;DHT22;10250;50.756;6.172;2023-07-31T06:29:06;17.20;99.90
20182;DHT22;10250;50.756;6.172;2023-07-31T06:31:06;17.40;99.90
20182;DHT22;10250;50.756;6.172;2023-07-31T06:33:07;17.10;99.90
20182;DHT22;10250;50.756;6.172;2023-07-31T06:35:09;17.00;99.90
20182;DHT22;10250;50.756;6.172;2023-07-31T06:37:10;16.90;99.90
20182;DHT22;10250;50.756;6.172;2023-07-31T06:39:10;16.80;99.90
20182;DHT22;10250;50.756;6.172;2023-07-31T06:41:11;16.70;99.90
20182;DHT22;10250;50.756;6.172;2023-07-31T06:43:11;16.80;99.90
20182;DHT22;10250;50.756;6.172;2023-07-31T06:45:12;16.80;99.90
20182;DHT22;10250;50.756;6.172;2023-07-31T06:47:12;16.80;99.90
20182;DHT22;10250;50.756;6.172;2023-07-31T06:49:13;16.70;99.90
20182;DHT22;10250;50.756;6.172;2023-07-31T06:51:15;16.70;99.90
20182;DHT22;10250;50.756;6.172;2023-07-31T06:53:16;16.70;99.90
20182;DHT22;10250;50.756;6.172;2023-07-31T06:55:18;16.80;99.90
20182;DHT22;10250;50.756;6.172;2023-07-31T06:57:19;16.70;99.90
20182;DHT22;10250;50.756;6.172;2023-07-31T06:59:19;16.70;99.90
20182;DHT22;10250;50.756;6.172;2023-07-31T07:01:20;16.70;99.90
20182;DHT22;10250;50.756;6.172;2023-07-31T07:03:21;16.70;99.90
20182;DHT22;10250;50.756;6.172;2023-07-31T07:05:21;16.60;99.90
20182;DHT22;10250;50.756;6.172;2023-07-31T07:07:22;16.60;99.90
20182;DHT22;10250;50.756;6.172;2023-07-31T07:09:22;16.60;99.90
20182;DHT22;10250;50.756;6.172;2023-07-31T07:11:23;16.60;99.90
20182;DHT22;10250;50.756;6.172;2023-07-31T07:13:23;16.50;99.90
20182;DHT22;10250;50.756;6.172;2023-07-31T07:15:24;16.50;99.90
20182;DHT22;10250;50.756;6.172;2023-07-31T07:17:26;16.40;99.90
20182;DHT22;10250;50.756;6.172;2023-07-31T07:19:26;16.40;99.90
20182;DHT22;10250;50.756;6.172;2023-07-31T07:21:27;16.40;99.90
20182;DHT22;10250;50.756;6.172;2023-07-31T07:23:27;16.40;99.90
20182;DHT22;10250;50.756;6.172;2023-07-31T07:25:28;16.40;99.90
20182;DHT22;10250;50.756;6.172;2023-07-31T07:27:28;16.40;99.90
20182;DHT22;10250;50.756;6.172;2023-07-31T07:29:30;16.40;99.90
20182;DHT22;10250;50.756;6.172;2023-07-31T07:31:30;16.40;99.90
20182;DHT22;10250;50.756;6.172;2023-07-31T07:33:31;16.50;99.90
20182;DHT22;10250;50.756;6.172;2023-07-31T07:35:35;16.40;99.90
20182;DHT22;10250;50.756;6.172;2023-07-31T07:37:36;16.50;99.90
20182;DHT22;10250;50.756;6.172;2023-07-31T07:39:37;16.50;99.90
20182;DHT22;10250;50.756;6.172;2023-07-31T07:41:37;16.50;99.90
20182;DHT22;10250;50.756;6.172;2023-07-31T07:43:38;16.40;99.90
20182;DHT22;10250;50.756;6.172;2023-07-31T07:45:38;16.40;99.90
20182;DHT22;10250;50.756;6.172;2023-07-31T07:47:42;16.40;99.90
20182;DHT22;10250;50.756;6.172;2023-07-31T07:49:43;16.50;99.90
20182;DHT22;10250;50.756;6.172;2023-07-31T07:51:43;16.60;99.90
20182;DHT22;10250;50.756;6.172;2023-07-31T07:53:44;16.60;99.90
20182;DHT22;10250;50.756;6.172;2023-07-31T07:55:44;16.70;99.90
20182;DHT22;10250;50.756;6.172;2023-07-31T07:57:45;16.70;99.90
20182;DHT22;10250;50.756;6.172;2023-07-31T07:59:46;16.70;99.90
20182;DHT22;10250;50.756;6.172;2023-07-31T08:01:46;16.80;99.90
20182;DHT22;10250;50.756;6.172;2023-07-31T08:03:47;16.80;99.90
20182;DHT22;10250;50.756;6.172;2023-07-31T08:05:48;16.80;99.90
20182;DHT22;10250;50.756;6.172;2023-07-31T08:07:48;16.70;99.90
20182;DHT22;10250;50.756;6.172;2023-07-31T08:09:49;16.80;99.90
20182;DHT22;10250;50.756;6.172;2023-07-31T08:11:50;16.80;99.90
20182;DHT22;10250;50.756;6.172;2023-07-31T08:13:50;16.80;99.90
20182;DHT22;10250;50.756;6.172;2023-07-31T08:15:51;16.80;99.90
20182;DHT22;10250;50.756;6.172;2023-07-31T08:17:51;16.90;99.90
20182;DHT22;10250;50.756;6.172;2023-07-31T08:19:52;16.80;99.90
20182;DHT22;10250;50.756;6.172;2023-07-31T08:21:52;16.70;99.90
20182;DHT22;10250;50.756;6.172;2023-07-31T08:23:53;16.80;99.90
20182;DHT22;10250;50.756;6.172;2023-07-31T08:25:53;16.80;99.90
20182;DHT22;10250;50.756;6.172;2023-07-31T08:27:54;16.80;99.90
20182;DHT22;10250;50.756;6.172;2023-07-31T08:29:54;16.80;99.90
20182;DHT22;10250;50.756;6.172;2023-07-31T08:31:55;16.80;99.90
20182;DHT22;10250;50.756;6.172;2023-07-31T08:33:56;16.70;99.90
20182;DHT22;10250;50.756;6.172;2023-07-31T08:35:56;16.70;99.90
20182;DHT22;10250;50.756;6.172;2023-07-31T08:37:57;16.70;99.90
20182;DHT22;10250;50.756;6.172;2023-07-31T08:39:58;16.80;99.90
20182;DHT22;10250;50.756;6.172;2023-07-31T08:41:59;16.80;99.90
20182;DHT22;10250;50.756;6.172;2023-07-31T08:44:00;16.80;99.90
20182;DHT22;10250;50.756;6.172;2023-07-31T08:46:02;16.90;99.90
20182;DHT22;10250;50.756;6.172;2023-07-31T08:48:03;16.80;99.90
20182;DHT22;10250;50.756;6.172;2023-07-31T08:50:05;16.80;99.90
20182;DHT22;10250;50.756;6.172;2023-07-31T08:52:06;16.80;99.90
20182;DHT22;10250;50.756;6.172;2023-07-31T08:54:07;16.80;99.90
20182;DHT22;10250;50.756;6.172;2023-07-31T08:56:08;16.90;99.90
20182;DHT22;10250;50.756;6.172;2023-07-31T08:58:09;16.90;99.90
20182;DHT22;10250;50.756;6.172;2023-07-31T09:00:11;16.90;99.90
20182;DHT22;10250;50.756;6.172;2023-07-31T09:02:13;16.90;99.90
20182;DHT22;10250;50.756;6.172;2023-07-31T09:04:16;16.90;99.90
20182;DHT22;10250;50.756;6.172;2023-07-31T09:06:20;16.90;99.90
20182;DHT22;10250;50.756;6.172;2023-07-31T09:08:23;17.00;99.90
20182;DHT22;10250;50.756;6.172;2023-07-31T09:10:26;17.00;99.90
20182;DHT22;10250;50.756;6.172;2023-07-31T09:12:28;17.00;99.90
20182;DHT22;10250;50.756;6.172;2023-07-31T09:14:28;17.00;99.90
20182;DHT22;10250;50.756;6.172;2023-07-31T09:16:29;17.10;99.90
20182;DHT22;10250;50.756;6.172;2023-07-31T09:18:53;17.10;99.90
20182;DHT22;10250;50.756;6.172;2023-07-31T09:21:06;17.20;99.90
20182;DHT22;10250;50.756;6.172;2023-07-31T09:23:10;17.20;99.90
20182;DHT22;10250;50.756;6.172;2023-07-31T09:25:23;17.30;99.90
20182;DHT22;10250;50.756;6.172;2023-07-31T09:27:24;17.30;99.90
20182;DHT22;10250;50.756;6.172;2023-07-31T09:29:25;17.40;99.90
20182;DHT22;10250;50.756;6.172;2023-07-31T09:31:43;17.50;99.90
20182;DHT22;10250;50.756;6.172;2023-07-31T09:33:54;17.50;99.90
20182;DHT22;10250;50.756;6.172;2023-07-31T09:35:55;17.50;99.90
20182;DHT22;10250;50.756;6.172;2023-07-31T09:38:00;17.50;99.90
20182;DHT22;10250;50.756;6.172;2023-07-31T09:40:03;17.50;99.90
20182;DHT22;10250;50.756;6.172;2023-07-31T09:42:04;17.60;99.90
20182;DHT22;10250;50.756;6.172;2023-07-31T09:44:05;17.60;99.90
20182;DHT22;10250;50.756;6.172;2023-07-31T09:46:13;17.60;99.90
20182;DHT22;10250;50.756;6.172;2023-07-31T09:48:16;17.60;99.90
20182;DHT22;10250;50.756;6.172;2023-07-31T09:50:17;17.70;99.90
20182;DHT22;10250;50.756;6.172;2023-07-31T09:52:17;17.60;99.90
20182;DHT22;10250;50.756;6.172;2023-07-31T09:54:18;17.50;99.90
20182;DHT22;10250;50.756;6.172;2023-07-31T09:56:21;17.50;99.90
20182;DHT22;10250;50.756;6.172;2023-07-31T09:58:23;17.40;99.90
20182;DHT22;10250;50.756;6.172;2023-07-31T10:00:24;17.50;99.90
20182;DHT22;10250;50.756;6.172;2023-07-31T10:02:30;17.40;99.90
20182;DHT22;10250;50.756;6.172;2023-07-31T10:04:32;17.40;99.90
20182;DHT22;10250;50.756;6.172;2023-07-31T10:06:34;17.30;99.90
20182;DHT22;10250;50.756;6.172;2023-07-31T10:08:36;17.30;99.90
20182;DHT22;10250;50.756;6.172;2023-07-31T10:10:37;17.20;99.90
20182;DHT22;10250;50.756;6.172;2023-07-31T10:12:42;17.20;99.90
20182;DHT22;10250;50.756;6.172;2023-07-31T10:14:44;17.30;99.90
20182;DHT22;10250;50.756;6.172;2023-07-31T10:16:45;17.30;99.90
20182;DHT22;10250;50.756;6.172;2023-07-31T10:18:46;17.30;99.90
20182;DHT22;10250;50.756;6.172;2023-07-31T10:20:47;17.20;99.90
20182;DHT22;10250;50.756;6.172;2023-07-31T10:22:49;17.10;99.90
20182;DHT22;10250;50.756;6.172;2023-07-31T10:24:50;17.00;99.90
20182;DHT22;10250;50.756;6.172;2023-07-31T10:26:53;17.00;99.90
20182;DHT22;10250;50.756;6.172;2023-07-31T10:28:58;17.00;99.90
20182;DHT22;10250;50.756;6.172;2023-07-31T10:30:59;16.90;99.90
20182;DHT22;10250;50.756;6.172;2023-07-31T10:33:00;16.90;99.90
20182;DHT22;10250;50.756;6.172;2023-07-31T10:35:03;16.80;99.90
20182;DHT22;10250;50.756;6.172;2023-07-31T10:39:36;16.80;99.90
20182;DHT22;10250;50.756;6.172;2023-07-31T10:41:37;16.80;99.90
20182;DHT22;10250;50.756;6.172;2023-07-31T10:43:38;16.80;99.90
20182;DHT22;10250;50.756;6.172;2023-07-31T10:45:42;16.80;99.90
20182;DHT22;10250;50.756;6.172;2023-07-31T10:47:43;16.80;99.90
20182;DHT22;10250;50.756;6.172;2023-07-31T10:49:47;16.80;99.90
20182;DHT22;10250;50.756;6.172;2023-07-31T10:51:48;16.80;99.90
20182;DHT22;10250;50.756;6.172;2023-07-31T10:54:10;16.80;99.90
20182;DHT22;10250;50.756;6.172;2023-07-31T10:56:11;16.90;99.90
20182;DHT22;10250;50.756;6.172;2023-07-31T10:58:14;17.10;99.90
20182;DHT22;10250;50.756;6.172;2023-07-31T11:00:38;17.20;99.90
20182;DHT22;10250;50.756;6.172;2023-07-31T11:02:39;17.20;99.90
20182;DHT22;10250;50.756;6.172;2023-07-31T11:04:41;17.20;99.90
20182;DHT22;10250;50.756;6.172;2023-07-31T11:06:55;17.20;99.90
20182;DHT22;10250;50.756;6.172;2023-07-31T11:08:56;17.20;99.90
20182;DHT22;10250;50.756;6.172;2023-07-31T11:13:05;17.10;99.90
20182;DHT22;10250;50.756;6.172;2023-07-31T11:15:06;17.10;99.90
20182;DHT22;10250;50.756;6.172;2023-07-31T11:17:07;17.00;99.90
20182;DHT22;10250;50.756;6.172;2023-07-31T11:19:08;17.10;99.90
20182;DHT22;10250;50.756;6.172;2023-07-31T11:21:13;17.10;99.90
20182;DHT22;10250;50.756;6.172;2023-07-31T11:23:16;17.20;99.90
20182;DHT22;10250;50.756;6.172;2023-07-31T11:25:18;17.10;99.90
20182;DHT22;10250;50.756;6.172;2023-07-31T11:27:19;17.10;99.90
20182;DHT22;10250;50.756;6.172;2023-07-31T11:29:20;17.10;99.90
20182;DHT22;10250;50.756;6.172;2023-07-31T11:31:20;17.00;99.90
20182;DHT22;10250;50.756;6.172;2023-07-31T11:33:21;17.00;99.90
20182;DHT22;10250;50.756;6.172;2023-07-31T11:35:21;16.90;99.90
20182;DHT22;10250;50.756;6.172;2023-07-31T11:37:23;16.90;99.90
20182;DHT22;10250;50.756;6.172;2023-07-31T11:39:23;17.10;99.90
20182;DHT22;10250;50.756;6.172;2023-07-31T11:41:24;17.00;99.90
20182;DHT22;10250;50.756;6.172;2023-07-31T11:43:25;17.10;99.90
20182;DHT22;10250;50.756;6.172;2023-07-31T11:45:27;17.10;99.90
20182;DHT22;10250;50.756;6.172;2023-07-31T11:47:28;17.10;99.90
20182;DHT22;10250;50.756;6.172;2023-07-31T11:49:29;17.10;99.90
20182;DHT22;10250;50.756;6.172;2023-07-31T11:51:30;17.20;99.90
20182;DHT22;10250;50.756;6.172;2023-07-31T11:53:31;17.20;99.90
20182;DHT22;10250;50.756;6.172;2023-07-31T11:55:33;17.20;99.90
20182;DHT22;10250;50.756;6.172;2023-07-31T11:57:34;17.20;99.90
20182;DHT22;10250;50.756;6.172;2023-07-31T11:59:37;17.20;99.90
20182;DHT22;10250;50.756;6.172;2023-07-31T12:01:38;17.20;99.90
20182;DHT22;10250;50.756;6.172;2023-07-31T12:03:39;17.20;99.90
20182;DHT22;10250;50.756;6.172;2023-07-31T12:05:40;17.20;99.90
20182;DHT22;10250;50.756;6.172;2023-07-31T12:07:51;17.10;99.90
20182;DHT22;10250;50.756;6.172;2023-07-31T12:09:53;17.10;99.90
20182;DHT22;10250;50.756;6.172;2023-07-31T12:11:54;17.20;99.90
20182;DHT22;10250;50.756;6.172;2023-07-31T12:13:54;17.30;99.90
20182;DHT22;10250;50.756;6.172;2023-07-31T12:15:56;17.30;99.90
20182;DHT22;10250;50.756;6.172;2023-07-31T12:17:58;17.40;99.90
20182;DHT22;10250;50.756;6.172;2023-07-31T12:19:59;17.30;99.90
20182;DHT22;10250;50.756;6.172;2023-07-31T12:22:00;17.40;99.90
20182;DHT22;10250;50.756;6.172;2023-07-31T12:24:02;17.40;99.90
20182;DHT22;10250;50.756;6.172;2023-07-31T12:26:07;17.50;99.90
20182;DHT22;10250;50.756;6.172;2023-07-31T12:28:08;17.50;99.90
20182;DHT22;10250;50.756;6.172;2023-07-31T12:30:34;17.60;99.90
20182;DHT22;10250;50.756;6.172;2023-07-31T12:32:35;17.60;99.90
20182;DHT22;10250;50.756;6.172;2023-07-31T12:34:42;17.70;99.90
20182;DHT22;10250;50.756;6.172;2023-07-31T12:36:43;17.70;99.90
20182;DHT22;10250;50.756;6.172;2023-07-31T12:38:44;17.60;99.90
20182;DHT22;10250;50.756;6.172;2023-07-31T12:40:45;17.50;99.90
20182;DHT22;10250;50.756;6.172;2023-07-31T12:42:47;17.50;99.90
20182;DHT22;10250;50.756;6.172;2023-07-31T12:44:47;17.50;99.90
20182;DHT22;10250;50.756;6.172;2023-07-31T12:46:48;17.50;99.90
20182;DHT22;10250;50.756;6.172;2023-07-31T12:48:48;17.50;99.90
20182;DHT22;10250;50.756;6.172;2023-07-31T12:50:49;17.60;99.90
20182;DHT22;10250;50.756;6.172;2023-07-31T12:52:50;17.60;99.90
20182;DHT22;10250;50.756;6.172;2023-07-31T12:54:50;17.70;99.90
20182;DHT22;10250;50.756;6.172;2023-07-31T12:56:51;17.80;99.90
20182;DHT22;10250;50.756;6.172;2023-07-31T12:58:52;18.00;99.90